sensor_id;sensor_type;location;lat;lon;timestamp;pressure;altitude;pressure_sealevel;temperature;humidity
51287;BME280;37364;46.974;18.916;2023-11-22T00:01:15;151486.63;;;4.51;100.00
51287;BME280;37364;46.974;18.916;2023-11-22T00:03:46;151487.91;;;4.52;100.00
51287;BME280;37364;46.974;18.916;2023-11-22T00:06:17;151490.50;;;4.53;100.00
51287;BME280;37364;46.974;18.916;2023-11-22T00:08:50;151485.34;;;4.51;100.00
51287;BME280;37364;46.974;18.916;2023-11-22T00:11:24;151462.16;;;4.42;100.00
51287;BME280;37364;46.974;18.916;2023-11-22T00:13:55;151457.00;;;4.40;100.00
51287;BME280;37364;46.974;18.916;2023-11-22T00:16:25;151446.69;;;4.35;100.00
51287;BME280;37364;46.974;18.916;2023-11-22T00:18:55;151431.22;;;4.29;100.00
51287;BME280;37364;46.974;18.916;2023-11-22T00:21:26;151435.06;;;4.31;100.00
51287;BME280;37364;46.974;18.916;2023-11-22T00:23:56;151423.47;;;4.26;100.00
51287;BME280;37364;46.974;18.916;2023-11-22T00:26:29;151435.06;;;4.31;100.00
51287;BME280;37364;46.974;18.916;2023-11-22T00:29:01;151428.63;;;4.28;100.00
51287;BME280;37364;46.974;18.916;2023-11-22T00:31:32;151427.34;;;4.28;100.00
51287;BME280;37364;46.974;18.916;2023-11-22T00:34:03;151437.66;;;4.32;100.00
51287;BME280;37364;46.974;18.916;2023-11-22T00:36:33;151436.38;;;4.31;100.00
51287;BME280;37364;46.974;18.916;2023-11-22T00:39:04;151441.53;;;4.33;100.00
51287;BME280;37364;46.974;18.916;2023-11-22T00:41:39;151424.75;;;4.27;100.00
51287;BME280;37364;46.974;18.916;2023-11-22T00:44:13;151424.75;;;4.27;100.00
51287;BME280;37364;46.974;18.916;2023-11-22T00:46:46;151422.19;;;4.26;100.00
51287;BME280;37364;46.974;18.916;2023-11-22T00:49:17;151399.00;;;4.16;100.00
51287;BME280;37364;46.974;18.916;2023-11-22T00:51:47;151420.88;;;4.25;100.00
51287;BME280;37364;46.974;18.916;2023-11-22T00:54:18;151410.56;;;4.21;100.00
51287;BME280;37364;46.974;18.916;2023-11-22T00:56:53;151410.56;;;4.21;100.00
51287;BME280;37364;46.974;18.916;2023-11-22T00:59:23;151405.41;;;4.19;100.00
51287;BME280;37364;46.974;18.916;2023-11-22T01:01:54;151397.72;;;4.16;100.00
51287;BME280;37364;46.974;18.916;2023-11-22T01:04:24;151388.69;;;4.12;100.00
51287;BME280;37364;46.974;18.916;2023-11-22T01:06:54;151374.50;;;4.07;100.00
51287;BME280;37364;46.974;18.916;2023-11-22T01:09:24;151356.44;;;4.00;100.00
51287;BME280;37364;46.974;18.916;2023-11-22T01:11:58;151346.16;;;3.95;100.00
51287;BME280;37364;46.974;18.916;2023-11-22T01:14:29;151312.66;;;3.82;100.00
51287;BME280;37364;46.974;18.916;2023-11-22T01:16:59;151316.53;;;3.84;100.00
51287;BME280;37364;46.974;18.916;2023-11-22T01:19:30;151302.34;;;3.78;100.00
51287;BME280;37364;46.974;18.916;2023-11-22T01:22:00;151286.88;;;3.72;100.00
51287;BME280;37364;46.974;18.916;2023-11-22T01:24:32;151286.88;;;3.72;100.00
51287;BME280;37364;46.974;18.916;2023-11-22T01:27:07;151261.16;;;3.62;100.00
51287;BME280;37364;46.974;18.916;2023-11-22T01:29:37;151234.13;;;3.51;100.00
51287;BME280;37364;46.974;18.916;2023-11-22T01:32:09;151257.25;;;3.60;100.00
51287;BME280;37364;46.974;18.916;2023-11-22T01:34:40;151226.38;;;3.48;100.00
51287;BME280;37364;46.974;18.916;2023-11-22T01:37:10;151253.41;;;3.59;100.00
51287;BME280;37364;46.974;18.916;2023-11-22T01:39:40;151245.69;;;3.55;100.00
51287;BME280;37364;46.974;18.916;2023-11-22T01:42:13;151253.41;;;3.59;100.00
51287;BME280;37364;46.974;18.916;2023-11-22T01:44:44;151259.88;;;3.61;100.00
51287;BME280;37364;46.974;18.916;2023-11-22T01:47:15;151268.91;;;3.65;100.00
51287;BME280;37364;46.974;18.916;2023-11-22T01:49:46;151253.41;;;3.59;100.00
51287;BME280;37364;46.974;18.916;2023-11-22T01:52:16;151252.13;;;3.58;100.00
51287;BME280;37364;46.974;18.916;2023-11-22T01:54:47;151243.09;;;3.54;100.00
51287;BME280;37364;46.974;18.916;2023-11-22T01:57:20;151263.75;;;3.63;100.00
51287;BME280;37364;46.974;18.916;2023-11-22T01:59:50;151240.53;;;3.53;100.00
51287;BME280;37364;46.974;18.916;2023-11-22T02:02:21;151253.41;;;3.59;100.00
51287;BME280;37364;46.974;18.916;2023-11-22T02:04:52;151226.38;;;3.48;100.00
51287;BME280;37364;46.974;18.916;2023-11-22T02:07:22;151245.69;;;3.55;100.00
51287;BME280;37364;46.974;18.916;2023-11-22T02:09:54;151244.41;;;3.55;100.00
51287;BME280;37364;46.974;18.916;2023-11-22T02:12:27;151235.38;;;3.51;100.00
51287;BME280;37364;46.974;18.916;2023-11-22T02:14:58;151240.53;;;3.53;100.00
51287;BME280;37364;46.974;18.916;2023-11-22T02:17:28;151227.66;;;3.48;100.00
51287;BME280;37364;46.974;18.916;2023-11-22T02:19:59;151214.78;;;3.43;100.00
51287;BME280;37364;46.974;18.916;2023-11-22T02:22:33;151223.78;;;3.47;100.00
51287;BME280;37364;46.974;18.916;2023-11-22T02:25:06;151219.94;;;3.45;100.00
51287;BME280;37364;46.974;18.916;2023-11-22T02:27:37;151191.59;;;3.34;100.00
51287;BME280;37364;46.974;18.916;2023-11-22T02:30:08;151225.09;;;3.47;100.00
51287;BME280;37364;46.974;18.916;2023-11-22T02:32:39;151189.00;;;3.33;100.00
51287;BME280;37364;46.974;18.916;2023-11-22T02:35:12;151210.91;;;3.42;100.00
51287;BME280;37364;46.974;18.916;2023-11-22T02:37:43;151203.19;;;3.39;100.00
51287;BME280;37364;46.974;18.916;2023-11-22T02:40:20;151198.03;;;3.36;100.00
51287;BME280;37364;46.974;18.916;2023-11-22T02:42:53;151178.72;;;3.29;100.00
51287;BME280;37364;46.974;18.916;2023-11-22T02:45:27;151187.72;;;3.32;100.00
51287;BME280;37364;46.974;18.916;2023-11-22T02:48:06;151178.72;;;3.29;100.00
51287;BME280;37364;46.974;18.916;2023-11-22T02:50:39;151171.00;;;3.26;100.00
51287;BME280;37364;46.974;18.916;2023-11-22T02:53:14;151171.00;;;3.26;100.00
51287;BME280;37364;46.974;18.916;2023-11-22T02:55:48;151171.00;;;3.26;100.00
51287;BME280;37364;46.974;18.916;2023-11-22T02:58:19;151194.16;;;3.35;100.00
51287;BME280;37364;46.974;18.916;2023-11-22T03:00:52;151199.31;;;3.37;100.00
51287;BME280;37364;46.974;18.916;2023-11-22T03:03:24;151162.00;;;3.22;100.00
51287;BME280;37364;46.974;18.916;2023-11-22T03:05:56;151172.28;;;3.26;100.00
51287;BME280;37364;46.974;18.916;2023-11-22T03:08:26;151173.56;;;3.27;100.00
51287;BME280;37364;46.974;18.916;2023-11-22T03:10:59;151171.00;;;3.26;100.00
51287;BME280;37364;46.974;18.916;2023-11-22T03:13:30;151145.22;;;3.15;100.00
51287;BME280;37364;46.974;18.916;2023-11-22T03:16:04;151178.72;;;3.29;100.00
51287;BME280;37364;46.974;18.916;2023-11-22T03:18:35;151159.38;;;3.21;100.00
51287;BME280;37364;46.974;18.916;2023-11-22T03:21:06;151177.44;;;3.28;100.00
51287;BME280;37364;46.974;18.916;2023-11-22T03:23:39;151180.03;;;3.29;100.00
51287;BME280;37364;46.974;18.916;2023-11-22T03:26:12;151172.28;;;3.26;100.00
51287;BME280;37364;46.974;18.916;2023-11-22T03:28:43;151155.56;;;3.20;100.00
51287;BME280;37364;46.974;18.916;2023-11-22T03:31:14;151168.41;;;3.25;100.00
51287;BME280;37364;46.974;18.916;2023-11-22T03:33:44;151180.03;;;3.29;100.00
51287;BME280;37364;46.974;18.916;2023-11-22T03:36:14;151180.03;;;3.29;100.00
51287;BME280;37364;46.974;18.916;2023-11-22T03:38:45;151177.44;;;3.28;100.00
51287;BME280;37364;46.974;18.916;2023-11-22T03:41:18;151195.47;;;3.35;100.00
51287;BME280;37364;46.974;18.916;2023-11-22T03:43:48;151194.16;;;3.35;100.00
51287;BME280;37364;46.974;18.916;2023-11-22T03:46:19;151186.44;;;3.32;100.00
51287;BME280;37364;46.974;18.916;2023-11-22T03:48:49;151178.72;;;3.29;100.00
51287;BME280;37364;46.974;18.916;2023-11-22T03:51:20;151181.31;;;3.30;100.00
51287;BME280;37364;46.974;18.916;2023-11-22T03:53:52;151174.84;;;3.27;100.00
51287;BME280;37364;46.974;18.916;2023-11-22T03:56:25;151173.56;;;3.27;100.00
51287;BME280;37364;46.974;18.916;2023-11-22T03:58:56;151165.84;;;3.24;100.00
51287;BME280;37364;46.974;18.916;2023-11-22T04:01:26;151181.31;;;3.30;100.00
51287;BME280;37364;46.974;18.916;2023-11-22T04:03:57;151167.13;;;3.24;100.00
51287;BME280;37364;46.974;18.916;2023-11-22T04:06:27;151176.16;;;3.28;100.00
51287;BME280;37364;46.974;18.916;2023-11-22T04:09:00;151167.13;;;3.24;100.00
51287;BME280;37364;46.974;18.916;2023-11-22T04:11:33;151158.13;;;3.21;100.00
51287;BME280;37364;46.974;18.916;2023-11-22T04:14:06;151131.09;;;3.10;100.00
51287;BME280;37364;46.974;18.916;2023-11-22T04:16:37;151138.78;;;3.13;100.00
51287;BME280;37364;46.974;18.916;2023-11-22T04:19:08;151160.72;;;3.22;100.00
51287;BME280;37364;46.974;18.916;2023-11-22T04:21:38;151129.78;;;3.09;100.00
51287;BME280;37364;46.974;18.916;2023-11-22T04:24:16;151143.94;;;3.15;100.00
51287;BME280;37364;46.974;18.916;2023-11-22T04:26:49;151115.59;;;3.04;100.00
51287;BME280;37364;46.974;18.916;2023-11-22T04:29:19;151122.06;;;3.06;100.00
51287;BME280;37364;46.974;18.916;2023-11-22T04:31:49;151116.94;;;3.04;100.00
51287;BME280;37364;46.974;18.916;2023-11-22T04:34:23;151119.47;;;3.05;100.00
51287;BME280;37364;46.974;18.916;2023-11-22T04:36:54;151106.63;;;3.00;100.00
51287;BME280;37364;46.974;18.916;2023-11-22T04:39:25;151109.19;;;3.01;100.00
51287;BME280;37364;46.974;18.916;2023-11-22T04:41:59;151098.88;;;2.97;100.00
51287;BME280;37364;46.974;18.916;2023-11-22T04:44:30;151074.44;;;2.87;100.00
51287;BME280;37364;46.974;18.916;2023-11-22T04:47:00;151077.03;;;2.88;100.00
51287;BME280;37364;46.974;18.916;2023-11-22T04:49:31;151068.00;;;2.85;100.00
51287;BME280;37364;46.974;18.916;2023-11-22T04:52:07;151082.16;;;2.90;100.00
51287;BME280;37364;46.974;18.916;2023-11-22T04:54:37;151079.56;;;2.89;100.00
51287;BME280;37364;46.974;18.916;2023-11-22T04:57:14;151049.97;;;2.77;100.00
51287;BME280;37364;46.974;18.916;2023-11-22T04:59:45;151053.84;;;2.79;100.00
51287;BME280;37364;46.974;18.916;2023-11-22T05:02:19;151033.25;;;2.71;100.00
51287;BME280;37364;46.974;18.916;2023-11-22T05:04:54;151010.06;;;2.62;100.00
51287;BME280;37364;46.974;18.916;2023-11-22T05:07:26;151025.50;;;2.68;100.00
51287;BME280;37364;46.974;18.916;2023-11-22T05:09:59;151034.53;;;2.71;100.00
51287;BME280;37364;46.974;18.916;2023-11-22T05:12:32;151044.81;;;2.75;100.00
51287;BME280;37364;46.974;18.916;2023-11-22T05:15:06;151029.38;;;2.69;100.00
51287;BME280;37364;46.974;18.916;2023-11-22T05:17:38;151002.34;;;2.58;100.00
51287;BME280;37364;46.974;18.916;2023-11-22T05:20:11;150990.78;;;2.54;100.00
51287;BME280;37364;46.974;18.916;2023-11-22T05:22:43;150948.28;;;2.37;100.00
51287;BME280;37364;46.974;18.916;2023-11-22T05:25:13;150957.31;;;2.41;100.00
51287;BME280;37364;46.974;18.916;2023-11-22T05:27:47;150944.47;;;2.35;100.00
51287;BME280;37364;46.974;18.916;2023-11-22T05:30:21;150931.56;;;2.30;100.00
51287;BME280;37364;46.974;18.916;2023-11-22T05:32:53;150954.75;;;2.40;100.00
51287;BME280;37364;46.974;18.916;2023-11-22T05:35:24;150959.91;;;2.42;100.00
51287;BME280;37364;46.974;18.916;2023-11-22T05:37:54;150941.88;;;2.34;100.00
51287;BME280;37364;46.974;18.916;2023-11-22T05:40:26;150972.72;;;2.47;100.00
51287;BME280;37364;46.974;18.916;2023-11-22T05:43:00;150979.19;;;2.49;100.00
51287;BME280;37364;46.974;18.916;2023-11-22T05:45:32;150975.34;;;2.48;100.00
51287;BME280;37364;46.974;18.916;2023-11-22T05:48:05;150970.19;;;2.46;100.00
51287;BME280;37364;46.974;18.916;2023-11-22T05:50:35;150974.06;;;2.47;100.00
51287;BME280;37364;46.974;18.916;2023-11-22T05:53:11;150968.91;;;2.45;100.00
51287;BME280;37364;46.974;18.916;2023-11-22T05:55:54;150979.19;;;2.49;100.00
51287;BME280;37364;46.974;18.916;2023-11-22T05:58:28;150980.47;;;2.50;100.00
51287;BME280;37364;46.974;18.916;2023-11-22T06:01:00;150972.72;;;2.47;100.00
51287;BME280;37364;46.974;18.916;2023-11-22T06:03:35;150981.75;;;2.50;100.00
51287;BME280;37364;46.974;18.916;2023-11-22T06:06:08;150974.06;;;2.47;100.00
51287;BME280;37364;46.974;18.916;2023-11-22T06:08:41;150983.03;;;2.51;100.00
51287;BME280;37364;46.974;18.916;2023-11-22T06:11:14;150980.47;;;2.50;100.00
51287;BME280;37364;46.974;18.916;2023-11-22T06:13:52;150986.91;;;2.52;100.00
51287;BME280;37364;46.974;18.916;2023-11-22T06:16:24;150980.47;;;2.50;100.00
51287;BME280;37364;46.974;18.916;2023-11-22T06:18:56;150962.44;;;2.43;100.00
51287;BME280;37364;46.974;18.916;2023-11-22T06:21:30;150954.75;;;2.40;100.00
51287;BME280;37364;46.974;18.916;2023-11-22T06:24:03;150952.16;;;2.38;100.00
51287;BME280;37364;46.974;18.916;2023-11-22T06:26:37;150938.00;;;2.33;100.00
51287;BME280;37364;46.974;18.916;2023-11-22T06:29:13;150923.84;;;2.27;100.00
51287;BME280;37364;46.974;18.916;2023-11-22T06:31:48;150900.72;;;2.18;100.00
51287;BME280;37364;46.974;18.916;2023-11-22T06:34:26;150914.88;;;2.24;100.00
51287;BME280;37364;46.974;18.916;2023-11-22T06:37:05;150901.97;;;2.18;100.00
51287;BME280;37364;46.974;18.916;2023-11-22T06:39:37;150900.72;;;2.18;100.00
51287;BME280;37364;46.974;18.916;2023-11-22T06:42:10;150931.56;;;2.30;100.00
51287;BME280;37364;46.974;18.916;2023-11-22T06:44:43;150889.09;;;2.13;100.00
51287;BME280;37364;46.974;18.916;2023-11-22T06:47:15;150899.38;;;2.17;100.00
51287;BME280;37364;46.974;18.916;2023-11-22T06:49:46;150927.69;;;2.29;100.00
51287;BME280;37364;46.974;18.916;2023-11-22T06:52:21;150927.69;;;2.29;100.00
51287;BME280;37364;46.974;18.916;2023-11-22T06:54:57;150918.69;;;2.25;100.00
51287;BME280;37364;46.974;18.916;2023-11-22T06:57:31;150918.69;;;2.25;100.00
51287;BME280;37364;46.974;18.916;2023-11-22T07:00:07;150936.72;;;2.32;100.00
51287;BME280;37364;46.974;18.916;2023-11-22T07:02:38;150925.16;;;2.28;100.00
51287;BME280;37364;46.974;18.916;2023-11-22T07:05:08;150950.88;;;2.38;100.00
51287;BME280;37364;46.974;18.916;2023-11-22T07:07:39;150934.16;;;2.31;100.00
51287;BME280;37364;46.974;18.916;2023-11-22T07:10:10;150930.31;;;2.30;100.00
51287;BME280;37364;46.974;18.916;2023-11-22T07:12:41;150968.91;;;2.45;100.00
51287;BME280;37364;46.974;18.916;2023-11-22T07:15:14;150984.34;;;2.51;100.00
51287;BME280;37364;46.974;18.916;2023-11-22T07:17:45;150967.59;;;2.45;100.00
51287;BME280;37364;46.974;18.916;2023-11-22T07:20:16;150975.34;;;2.48;100.00
51287;BME280;37364;46.974;18.916;2023-11-22T07:22:47;150967.59;;;2.45;100.00
51287;BME280;37364;46.974;18.916;2023-11-22T07:25:26;150970.19;;;2.46;100.00
51287;BME280;37364;46.974;18.916;2023-11-22T07:27:56;150983.03;;;2.51;100.00
51287;BME280;37364;46.974;18.916;2023-11-22T07:30:30;150983.03;;;2.51;100.00
51287;BME280;37364;46.974;18.916;2023-11-22T07:33:00;150995.91;;;2.56;100.00
51287;BME280;37364;46.974;18.916;2023-11-22T07:35:32;150998.50;;;2.57;100.00
51287;BME280;37364;46.974;18.916;2023-11-22T07:38:03;151034.53;;;2.71;100.00
51287;BME280;37364;46.974;18.916;2023-11-22T07:40:35;151044.81;;;2.75;100.00
51287;BME280;37364;46.974;18.916;2023-11-22T07:43:05;151047.41;;;2.76;100.00
51287;BME280;37364;46.974;18.916;2023-11-22T07:45:41;151042.28;;;2.74;100.00
51287;BME280;37364;46.974;18.916;2023-11-22T07:48:12;151053.84;;;2.79;100.00
51287;BME280;37364;46.974;18.916;2023-11-22T07:50:42;151062.88;;;2.83;100.00
51287;BME280;37364;46.974;18.916;2023-11-22T07:53:16;151071.88;;;2.86;100.00
51287;BME280;37364;46.974;18.916;2023-11-22T07:55:48;151066.69;;;2.84;100.00
51287;BME280;37364;46.974;18.916;2023-11-22T07:58:21;151087.31;;;2.92;100.00
51287;BME280;37364;46.974;18.916;2023-11-22T08:00:55;151116.94;;;3.04;100.00
51287;BME280;37364;46.974;18.916;2023-11-22T08:03:26;151116.94;;;3.04;100.00
51287;BME280;37364;46.974;18.916;2023-11-22T08:05:57;151137.53;;;3.12;100.00
51287;BME280;37364;46.974;18.916;2023-11-22T08:08:34;151165.84;;;3.24;100.00
51287;BME280;37364;46.974;18.916;2023-11-22T08:11:06;151163.25;;;3.23;100.00
51287;BME280;37364;46.974;18.916;2023-11-22T08:13:42;151186.44;;;3.32;100.00
51287;BME280;37364;46.974;18.916;2023-11-22T08:16:19;151212.19;;;3.42;100.00
51287;BME280;37364;46.974;18.916;2023-11-22T08:18:55;151248.25;;;3.56;100.00
51287;BME280;37364;46.974;18.916;2023-11-22T08:21:28;151274.03;;;3.67;100.00
51287;BME280;37364;46.974;18.916;2023-11-22T08:23:59;151310.09;;;3.81;100.00
51287;BME280;37364;46.974;18.916;2023-11-22T08:26:30;151315.25;;;3.83;100.00
51287;BME280;37364;46.974;18.916;2023-11-22T08:29:01;151326.81;;;3.88;100.00
51287;BME280;37364;46.974;18.916;2023-11-22T08:31:37;151326.81;;;3.88;100.00
51287;BME280;37364;46.974;18.916;2023-11-22T08:34:08;151348.75;;;3.96;100.00
51287;BME280;37364;46.974;18.916;2023-11-22T08:36:38;151375.78;;;4.07;100.00
51287;BME280;37364;46.974;18.916;2023-11-22T08:39:09;151369.34;;;4.05;100.00
51287;BME280;37364;46.974;18.916;2023-11-22T08:41:39;151391.25;;;4.13;100.00
51287;BME280;37364;46.974;18.916;2023-11-22T08:44:09;151426.06;;;4.27;100.00
51287;BME280;37364;46.974;18.916;2023-11-22T08:46:42;151444.09;;;4.34;100.00
51287;BME280;37364;46.974;18.916;2023-11-22T08:49:14;151446.69;;;4.35;100.00
51287;BME280;37364;46.974;18.916;2023-11-22T08:51:44;151484.03;;;4.50;100.00
51287;BME280;37364;46.974;18.916;2023-11-22T08:54:15;151511.13;;;4.61;100.00
51287;BME280;37364;46.974;18.916;2023-11-22T08:56:49;151564.00;;;4.82;100.00
51287;BME280;37364;46.974;18.916;2023-11-22T08:59:20;151591.03;;;4.93;100.00
51287;BME280;37364;46.974;18.916;2023-11-22T09:01:55;151647.81;;;5.15;100.00
51287;BME280;37364;46.974;18.916;2023-11-22T09:04:29;151707.13;;;5.39;100.00
51287;BME280;37364;46.974;18.916;2023-11-22T09:07:04;151781.94;;;5.69;100.00
51287;BME280;37364;46.974;18.916;2023-11-22T09:09:37;151796.13;;;5.74;100.00
51287;BME280;37364;46.974;18.916;2023-11-22T09:12:08;151849.03;;;5.96;100.00
51287;BME280;37364;46.974;18.916;2023-11-22T09:14:40;151861.97;;;6.01;100.00
51287;BME280;37364;46.974;18.916;2023-11-22T09:17:13;151882.59;;;6.09;100.00
51287;BME280;37364;46.974;18.916;2023-11-22T09:19:44;151913.56;;;6.21;100.00
51287;BME280;37364;46.974;18.916;2023-11-22T09:22:16;151934.25;;;6.29;100.00
51287;BME280;37364;46.974;18.916;2023-11-22T09:25:01;151938.09;;;6.31;100.00
51287;BME280;37364;46.974;18.916;2023-11-22T09:27:44;151979.41;;;6.47;100.00
51287;BME280;37364;46.974;18.916;2023-11-22T09:30:30;151992.31;;;6.52;100.00
51287;BME280;37364;46.974;18.916;2023-11-22T09:33:15;151962.63;;;6.41;100.00
51287;BME280;37364;46.974;18.916;2023-11-22T09:35:58;152019.44;;;6.63;100.00
51287;BME280;37364;46.974;18.916;2023-11-22T09:38:37;152034.91;;;6.69;100.00
51287;BME280;37364;46.974;18.916;2023-11-22T09:41:09;152047.84;;;6.75;100.00
51287;BME280;37364;46.974;18.916;2023-11-22T09:43:39;152081.38;;;6.88;100.00
51287;BME280;37364;46.974;18.916;2023-11-22T09:46:11;152090.44;;;6.91;100.00
51287;BME280;37364;46.974;18.916;2023-11-22T09:48:49;152112.41;;;7.00;100.00
51287;BME280;37364;46.974;18.916;2023-11-22T09:51:24;152131.78;;;7.08;100.00
51287;BME280;37364;46.974;18.916;2023-11-22T09:53:56;152158.88;;;7.19;100.00
51287;BME280;37364;46.974;18.916;2023-11-22T09:56:28;152200.25;;;7.35;100.00
51287;BME280;37364;46.974;18.916;2023-11-22T09:59:00;152236.41;;;7.49;100.00
51287;BME280;37364;46.974;18.916;2023-11-22T10:01:35;152233.78;;;7.48;100.00
51287;BME280;37364;46.974;18.916;2023-11-22T10:04:08;152244.13;;;7.52;100.00
51287;BME280;37364;46.974;18.916;2023-11-22T10:06:39;152316.50;;;7.81;100.00
51287;BME280;37364;46.974;18.916;2023-11-22T10:09:13;152291.94;;;7.71;100.00
51287;BME280;37364;46.974;18.916;2023-11-22T10:11:44;152320.38;;;7.83;100.00
51287;BME280;37364;46.974;18.916;2023-11-22T10:14:22;152324.25;;;7.84;100.00
51287;BME280;37364;46.974;18.916;2023-11-22T10:17:00;152285.50;;;7.69;100.00
51287;BME280;37364;46.974;18.916;2023-11-22T10:19:35;152244.13;;;7.52;100.00
51287;BME280;37364;46.974;18.916;2023-11-22T10:22:06;152272.56;;;7.64;100.00
51287;BME280;37364;46.974;18.916;2023-11-22T10:24:36;152317.75;;;7.82;100.00
51287;BME280;37364;46.974;18.916;2023-11-22T10:27:08;152319.09;;;7.82;100.00
51287;BME280;37364;46.974;18.916;2023-11-22T10:29:39;152355.25;;;7.97;100.00
51287;BME280;37364;46.974;18.916;2023-11-22T10:32:11;152321.66;;;7.83;100.00
51287;BME280;37364;46.974;18.916;2023-11-22T10:34:44;152320.38;;;7.83;100.00
51287;BME280;37364;46.974;18.916;2023-11-22T10:37:15;152356.53;;;7.97;100.00
51287;BME280;37364;46.974;18.916;2023-11-22T10:39:50;152391.44;;;8.11;100.00
51287;BME280;37364;46.974;18.916;2023-11-22T10:42:21;152383.69;;;8.08;100.00
51287;BME280;37364;46.974;18.916;2023-11-22T10:44:53;152387.53;;;8.09;100.00
51287;BME280;37364;46.974;18.916;2023-11-22T10:47:26;152372.03;;;8.03;100.00
51287;BME280;37364;46.974;18.916;2023-11-22T10:50:00;152355.25;;;7.97;100.00
51287;BME280;37364;46.974;18.916;2023-11-22T10:52:32;152386.25;;;8.09;100.00
51287;BME280;37364;46.974;18.916;2023-11-22T10:55:05;152428.94;;;8.26;100.00
51287;BME280;37364;46.974;18.916;2023-11-22T10:57:40;152368.22;;;8.02;100.00
51287;BME280;37364;46.974;18.916;2023-11-22T11:00:16;152372.03;;;8.03;100.00
51287;BME280;37364;46.974;18.916;2023-11-22T11:02:53;152430.22;;;8.26;100.00
51287;BME280;37364;46.974;18.916;2023-11-22T11:05:30;152377.22;;;8.05;100.00
51287;BME280;37364;46.974;18.916;2023-11-22T11:08:06;152410.81;;;8.19;100.00
51287;BME280;37364;46.974;18.916;2023-11-22T11:10:39;152457.38;;;8.37;100.00
51287;BME280;37364;46.974;18.916;2023-11-22T11:13:10;152484.56;;;8.48;100.00
51287;BME280;37364;46.974;18.916;2023-11-22T11:15:42;152476.81;;;8.45;100.00
51287;BME280;37364;46.974;18.916;2023-11-22T11:18:14;152426.31;;;8.25;100.00
51287;BME280;37364;46.974;18.916;2023-11-22T11:20:48;152404.38;;;8.16;100.00
51287;BME280;37364;46.974;18.916;2023-11-22T11:23:21;152470.31;;;8.42;100.00
51287;BME280;37364;46.974;18.916;2023-11-22T11:25:53;152487.16;;;8.49;100.00
51287;BME280;37364;46.974;18.916;2023-11-22T11:28:24;152518.19;;;8.61;100.00
51287;BME280;37364;46.974;18.916;2023-11-22T11:30:57;152506.56;;;8.57;100.00
51287;BME280;37364;46.974;18.916;2023-11-22T11:33:33;152498.78;;;8.54;100.00
51287;BME280;37364;46.974;18.916;2023-11-22T11:36:07;152522.06;;;8.63;100.00
51287;BME280;37364;46.974;18.916;2023-11-22T11:38:38;152509.13;;;8.58;100.00
51287;BME280;37364;46.974;18.916;2023-11-22T11:41:09;152536.28;;;8.68;100.00
51287;BME280;37364;46.974;18.916;2023-11-22T11:43:40;152435.38;;;8.28;100.00
51287;BME280;37364;46.974;18.916;2023-11-22T11:46:12;152461.22;;;8.39;100.00
51287;BME280;37364;46.974;18.916;2023-11-22T11:48:43;152472.94;;;8.43;100.00
51287;BME280;37364;46.974;18.916;2023-11-22T11:51:17;152515.56;;;8.60;100.00
51287;BME280;37364;46.974;18.916;2023-11-22T11:53:48;152498.78;;;8.54;100.00
51287;BME280;37364;46.974;18.916;2023-11-22T11:56:19;152474.22;;;8.44;100.00
51287;BME280;37364;46.974;18.916;2023-11-22T11:58:50;152453.50;;;8.36;100.00
51287;BME280;37364;46.974;18.916;2023-11-22T12:01:20;152461.22;;;8.39;100.00
51287;BME280;37364;46.974;18.916;2023-11-22T12:03:51;152506.56;;;8.57;100.00
51287;BME280;37364;46.974;18.916;2023-11-22T12:06:24;152507.84;;;8.57;100.00
51287;BME280;37364;46.974;18.916;2023-11-22T12:08:54;152462.56;;;8.39;100.00
51287;BME280;37364;46.974;18.916;2023-11-22T12:11:25;152395.31;;;8.12;100.00
51287;BME280;37364;46.974;18.916;2023-11-22T12:13:56;152374.66;;;8.04;100.00
51287;BME280;37364;46.974;18.916;2023-11-22T12:16:26;152361.72;;;7.99;100.00
51287;BME280;37364;46.974;18.916;2023-11-22T12:18:57;152316.50;;;7.81;100.00
51287;BME280;37364;46.974;18.916;2023-11-22T12:21:30;152297.09;;;7.73;100.00
51287;BME280;37364;46.974;18.916;2023-11-22T12:24:01;152284.22;;;7.68;100.00
51287;BME280;37364;46.974;18.916;2023-11-22T12:26:33;152288.06;;;7.70;100.00
51287;BME280;37364;46.974;18.916;2023-11-22T12:29:05;152319.09;;;7.82;100.00
51287;BME280;37364;46.974;18.916;2023-11-22T12:31:44;152295.81;;;7.73;100.00
51287;BME280;37364;46.974;18.916;2023-11-22T12:34:15;152330.72;;;7.87;100.00
51287;BME280;37364;46.974;18.916;2023-11-22T12:36:48;152324.25;;;7.84;100.00
51287;BME280;37364;46.974;18.916;2023-11-22T12:39:20;152271.28;;;7.63;100.00
51287;BME280;37364;46.974;18.916;2023-11-22T12:41:51;152295.81;;;7.73;100.00
51287;BME280;37364;46.974;18.916;2023-11-22T12:44:47;152304.88;;;7.77;100.00
51287;BME280;37364;46.974;18.916;2023-11-22T12:47:34;152270.00;;;7.63;100.00
51287;BME280;37364;46.974;18.916;2023-11-22T12:50:07;152237.69;;;7.50;100.00
51287;BME280;37364;46.974;18.916;2023-11-22T12:52:40;152235.13;;;7.49;100.00
51287;BME280;37364;46.974;18.916;2023-11-22T12:55:10;152200.25;;;7.35;100.00
51287;BME280;37364;46.974;18.916;2023-11-22T12:57:40;152198.91;;;7.35;100.00
51287;BME280;37364;46.974;18.916;2023-11-22T13:00:14;152176.97;;;7.26;100.00
51287;BME280;37364;46.974;18.916;2023-11-22T13:02:44;152187.31;;;7.30;100.00
51287;BME280;37364;46.974;18.916;2023-11-22T13:05:29;152164.03;;;7.21;100.00
51287;BME280;37364;46.974;18.916;2023-11-22T13:08:01;152165.31;;;7.21;100.00